sensor_id;sensor_type;location;lat;lon;timestamp;P1;durP1;ratioP1;P2;durP2;ratioP2
38717;SDS011;24468;52.128;9.278;2023-09-07T00:01:29;7.10;;;2.45;;
38717;SDS011;24468;52.128;9.278;2023-09-07T00:03:55;4.40;;;2.75;;
38717;SDS011;24468;52.128;9.278;2023-09-07T00:06:21;2.72;;;2.40;;
38717;SDS011;24468;52.128;9.278;2023-09-07T00:08:46;4.50;;;2.33;;
38717;SDS011;24468;52.128;9.278;2023-09-07T00:11:12;3.70;;;2.28;;
38717;SDS011;24468;52.128;9.278;2023-09-07T00:13:37;3.58;;;2.15;;
38717;SDS011;24468;52.128;9.278;2023-09-07T00:16:03;5.90;;;2.50;;
38717;SDS011;24468;52.128;9.278;2023-09-07T00:18:30;4.13;;;2.47;;
38717;SDS011;24468;52.128;9.278;2023-09-07T00:20:58;2.75;;;2.15;;
38717;SDS011;24468;52.128;9.278;2023-09-07T00:23:24;6.20;;;2.50;;
38717;SDS011;24468;52.128;9.278;2023-09-07T00:25:50;5.45;;;2.55;;
38717;SDS011;24468;52.128;9.278;2023-09-07T00:28:16;3.47;;;2.58;;
38717;SDS011;24468;52.128;9.278;2023-09-07T00:30:41;3.40;;;2.78;;
38717;SDS011;24468;52.128;9.278;2023-09-07T00:33:07;3.10;;;2.60;;
38717;SDS011;24468;52.128;9.278;2023-09-07T00:35:33;3.80;;;2.42;;
38717;SDS011;24468;52.128;9.278;2023-09-07T00:37:59;4.63;;;2.50;;
38717;SDS011;24468;52.128;9.278;2023-09-07T00:40:25;2.65;;;2.35;;
38717;SDS011;24468;52.128;9.278;2023-09-07T00:42:51;5.10;;;2.42;;
38717;SDS011;24468;52.128;9.278;2023-09-07T00:45:18;5.15;;;2.05;;
38717;SDS011;24468;52.128;9.278;2023-09-07T00:47:43;4.10;;;2.28;;
38717;SDS011;24468;52.128;9.278;2023-09-07T00:50:10;5.20;;;2.60;;
38717;SDS011;24468;52.128;9.278;2023-09-07T00:52:38;2.80;;;2.15;;
38717;SDS011;24468;52.128;9.278;2023-09-07T00:55:07;5.63;;;2.38;;
38717;SDS011;24468;52.128;9.278;2023-09-07T00:57:33;3.85;;;2.60;;
38717;SDS011;24468;52.128;9.278;2023-09-07T00:59:59;3.72;;;2.55;;
38717;SDS011;24468;52.128;9.278;2023-09-07T01:02:25;3.72;;;2.60;;
38717;SDS011;24468;52.128;9.278;2023-09-07T01:04:51;4.30;;;2.75;;
38717;SDS011;24468;52.128;9.278;2023-09-07T01:07:18;6.45;;;3.00;;
38717;SDS011;24468;52.128;9.278;2023-09-07T01:09:54;5.00;;;2.80;;
38717;SDS011;24468;52.128;9.278;2023-09-07T01:12:22;3.55;;;2.78;;
38717;SDS011;24468;52.128;9.278;2023-09-07T01:14:48;11.63;;;2.83;;
38717;SDS011;24468;52.128;9.278;2023-09-07T01:17:14;2.90;;;2.60;;
38717;SDS011;24468;52.128;9.278;2023-09-07T01:19:40;4.15;;;3.13;;
38717;SDS011;24468;52.128;9.278;2023-09-07T01:22:07;3.20;;;2.70;;
38717;SDS011;24468;52.128;9.278;2023-09-07T01:24:33;8.55;;;3.25;;
38717;SDS011;24468;52.128;9.278;2023-09-07T01:27:02;5.47;;;2.88;;
38717;SDS011;24468;52.128;9.278;2023-09-07T01:29:29;3.47;;;2.70;;
38717;SDS011;24468;52.128;9.278;2023-09-07T01:31:55;6.85;;;3.35;;
38717;SDS011;24468;52.128;9.278;2023-09-07T01:34:22;5.07;;;2.80;;
38717;SDS011;24468;52.128;9.278;2023-09-07T01:36:48;6.00;;;3.20;;
38717;SDS011;24468;52.128;9.278;2023-09-07T01:39:14;3.90;;;3.00;;
38717;SDS011;24468;52.128;9.278;2023-09-07T01:41:40;3.80;;;2.65;;
38717;SDS011;24468;52.128;9.278;2023-09-07T01:44:05;7.30;;;3.13;;
38717;SDS011;24468;52.128;9.278;2023-09-07T01:46:31;5.75;;;2.53;;
38717;SDS011;24468;52.128;9.278;2023-09-07T01:48:56;6.63;;;3.28;;
38717;SDS011;24468;52.128;9.278;2023-09-07T01:51:22;4.35;;;2.92;;
38717;SDS011;24468;52.128;9.278;2023-09-07T01:53:48;5.28;;;2.15;;
38717;SDS011;24468;52.128;9.278;2023-09-07T01:56:14;4.18;;;2.70;;
38717;SDS011;24468;52.128;9.278;2023-09-07T01:58:42;3.45;;;2.72;;
38717;SDS011;24468;52.128;9.278;2023-09-07T02:01:19;3.22;;;2.70;;
38717;SDS011;24468;52.128;9.278;2023-09-07T02:03:55;4.47;;;2.55;;
38717;SDS011;24468;52.128;9.278;2023-09-07T02:06:21;3.17;;;2.47;;
38717;SDS011;24468;52.128;9.278;2023-09-07T02:08:46;5.22;;;2.90;;
38717;SDS011;24468;52.128;9.278;2023-09-07T02:11:12;6.88;;;3.25;;
38717;SDS011;24468;52.128;9.278;2023-09-07T02:13:37;8.23;;;3.55;;
38717;SDS011;24468;52.128;9.278;2023-09-07T02:16:06;3.63;;;3.13;;
38717;SDS011;24468;52.128;9.278;2023-09-07T02:18:32;4.18;;;3.00;;
38717;SDS011;24468;52.128;9.278;2023-09-07T02:21:01;4.05;;;3.20;;
38717;SDS011;24468;52.128;9.278;2023-09-07T02:23:28;3.33;;;3.03;;
38717;SDS011;24468;52.128;9.278;2023-09-07T02:25:55;5.35;;;3.00;;
38717;SDS011;24468;52.128;9.278;2023-09-07T02:28:20;4.90;;;3.35;;
38717;SDS011;24468;52.128;9.278;2023-09-07T02:30:46;6.65;;;3.28;;
38717;SDS011;24468;52.128;9.278;2023-09-07T02:33:11;5.18;;;2.85;;
38717;SDS011;24468;52.128;9.278;2023-09-07T02:35:37;3.70;;;3.10;;
38717;SDS011;24468;52.128;9.278;2023-09-07T02:38:03;7.03;;;3.55;;
38717;SDS011;24468;52.128;9.278;2023-09-07T02:40:28;4.15;;;3.08;;
38717;SDS011;24468;52.128;9.278;2023-09-07T02:42:54;3.67;;;2.92;;
38717;SDS011;24468;52.128;9.278;2023-09-07T02:45:19;3.58;;;2.97;;
38717;SDS011;24468;52.128;9.278;2023-09-07T02:47:45;4.90;;;2.85;;
38717;SDS011;24468;52.128;9.278;2023-09-07T02:50:11;4.07;;;2.85;;
38717;SDS011;24468;52.128;9.278;2023-09-07T02:52:39;5.80;;;2.78;;
38717;SDS011;24468;52.128;9.278;2023-09-07T02:55:04;3.85;;;2.85;;
38717;SDS011;24468;52.128;9.278;2023-09-07T02:57:31;7.15;;;3.22;;
38717;SDS011;24468;52.128;9.278;2023-09-07T02:59:57;4.50;;;2.90;;
38717;SDS011;24468;52.128;9.278;2023-09-07T03:02:22;4.47;;;3.03;;
38717;SDS011;24468;52.128;9.278;2023-09-07T03:04:48;6.30;;;3.22;;
38717;SDS011;24468;52.128;9.278;2023-09-07T03:07:23;3.22;;;2.50;;
38717;SDS011;24468;52.128;9.278;2023-09-07T03:09:51;3.83;;;3.17;;
38717;SDS011;24468;52.128;9.278;2023-09-07T03:12:17;5.50;;;2.60;;
38717;SDS011;24468;52.128;9.278;2023-09-07T03:14:43;5.88;;;3.92;;
38717;SDS011;24468;52.128;9.278;2023-09-07T03:17:09;7.88;;;2.90;;
38717;SDS011;24468;52.128;9.278;2023-09-07T03:19:35;5.10;;;3.50;;
38717;SDS011;24468;52.128;9.278;2023-09-07T03:22:01;4.28;;;2.67;;
38717;SDS011;24468;52.128;9.278;2023-09-07T03:24:28;9.05;;;3.20;;
38717;SDS011;24468;52.128;9.278;2023-09-07T03:26:53;5.32;;;3.08;;
38717;SDS011;24468;52.128;9.278;2023-09-07T03:29:19;5.70;;;4.15;;
38717;SDS011;24468;52.128;9.278;2023-09-07T03:31:45;3.83;;;3.13;;
38717;SDS011;24468;52.128;9.278;2023-09-07T03:34:10;4.65;;;3.30;;
38717;SDS011;24468;52.128;9.278;2023-09-07T03:36:36;4.25;;;3.38;;
38717;SDS011;24468;52.128;9.278;2023-09-07T03:39:01;5.28;;;3.55;;
38717;SDS011;24468;52.128;9.278;2023-09-07T03:41:27;3.92;;;3.10;;
38717;SDS011;24468;52.128;9.278;2023-09-07T03:43:55;5.70;;;3.63;;
38717;SDS011;24468;52.128;9.278;2023-09-07T03:46:21;5.85;;;3.72;;
38717;SDS011;24468;52.128;9.278;2023-09-07T03:48:47;6.90;;;3.67;;
38717;SDS011;24468;52.128;9.278;2023-09-07T03:51:12;5.22;;;3.17;;
38717;SDS011;24468;52.128;9.278;2023-09-07T03:53:38;4.80;;;3.03;;
38717;SDS011;24468;52.128;9.278;2023-09-07T03:56:04;4.70;;;3.28;;
38717;SDS011;24468;52.128;9.278;2023-09-07T03:58:30;4.57;;;2.92;;
38717;SDS011;24468;52.128;9.278;2023-09-07T04:00:58;4.18;;;2.92;;
38717;SDS011;24468;52.128;9.278;2023-09-07T04:03:24;4.90;;;2.58;;
38717;SDS011;24468;52.128;9.278;2023-09-07T04:05:50;8.45;;;3.28;;
38717;SDS011;24468;52.128;9.278;2023-09-07T04:08:16;3.08;;;2.78;;
38717;SDS011;24468;52.128;9.278;2023-09-07T04:10:42;4.72;;;2.70;;
38717;SDS011;24468;52.128;9.278;2023-09-07T04:13:07;3.63;;;2.75;;
38717;SDS011;24468;52.128;9.278;2023-09-07T04:15:33;2.47;;;2.25;;
38717;SDS011;24468;52.128;9.278;2023-09-07T05:40:51;6.38;;;3.40;;
38717;SDS011;24468;52.128;9.278;2023-09-07T05:43:19;4.38;;;2.72;;
38717;SDS011;24468;52.128;9.278;2023-09-07T05:45:45;18.42;;;3.97;;
38717;SDS011;24468;52.128;9.278;2023-09-07T05:48:11;10.57;;;3.75;;
38717;SDS011;24468;52.128;9.278;2023-09-07T05:50:37;5.13;;;3.67;;
38717;SDS011;24468;52.128;9.278;2023-09-07T05:53:03;6.38;;;4.53;;
38717;SDS011;24468;52.128;9.278;2023-09-07T05:55:30;5.60;;;3.72;;
38717;SDS011;24468;52.128;9.278;2023-09-07T05:57:56;5.43;;;3.92;;
38717;SDS011;24468;52.128;9.278;2023-09-07T06:00:22;4.57;;;3.85;;
38717;SDS011;24468;52.128;9.278;2023-09-07T06:02:48;5.75;;;4.25;;
38717;SDS011;24468;52.128;9.278;2023-09-07T06:05:14;5.25;;;3.95;;
38717;SDS011;24468;52.128;9.278;2023-09-07T06:07:39;6.55;;;3.95;;
38717;SDS011;24468;52.128;9.278;2023-09-07T06:10:05;5.45;;;3.60;;
38717;SDS011;24468;52.128;9.278;2023-09-07T06:12:32;9.05;;;3.88;;
38717;SDS011;24468;52.128;9.278;2023-09-07T06:14:58;6.75;;;4.00;;
38717;SDS011;24468;52.128;9.278;2023-09-07T06:17:26;6.75;;;4.20;;
38717;SDS011;24468;52.128;9.278;2023-09-07T06:19:52;5.72;;;4.07;;
38717;SDS011;24468;52.128;9.278;2023-09-07T06:22:19;6.40;;;3.63;;
38717;SDS011;24468;52.128;9.278;2023-09-07T06:24:44;4.75;;;4.20;;
38717;SDS011;24468;52.128;9.278;2023-09-07T06:27:10;6.47;;;3.97;;
38717;SDS011;24468;52.128;9.278;2023-09-07T06:29:35;5.88;;;4.00;;
38717;SDS011;24468;52.128;9.278;2023-09-07T06:32:01;6.57;;;3.80;;
38717;SDS011;24468;52.128;9.278;2023-09-07T06:34:26;4.25;;;3.63;;
38717;SDS011;24468;52.128;9.278;2023-09-07T06:36:52;8.63;;;4.57;;
38717;SDS011;24468;52.128;9.278;2023-09-07T06:39:17;4.70;;;4.30;;
38717;SDS011;24468;52.128;9.278;2023-09-07T06:41:45;10.65;;;4.53;;
38717;SDS011;24468;52.128;9.278;2023-09-07T06:44:11;6.50;;;4.13;;
38717;SDS011;24468;52.128;9.278;2023-09-07T06:46:36;6.57;;;4.03;;
38717;SDS011;24468;52.128;9.278;2023-09-07T06:49:02;7.00;;;4.50;;
38717;SDS011;24468;52.128;9.278;2023-09-07T06:51:28;7.18;;;4.53;;
38717;SDS011;24468;52.128;9.278;2023-09-07T06:53:55;8.10;;;5.20;;
38717;SDS011;24468;52.128;9.278;2023-09-07T06:56:21;5.13;;;3.83;;
38717;SDS011;24468;52.128;9.278;2023-09-07T06:58:47;9.10;;;4.85;;
38717;SDS011;24468;52.128;9.278;2023-09-07T07:01:12;8.70;;;4.35;;
38717;SDS011;24468;52.128;9.278;2023-09-07T07:03:38;6.00;;;3.92;;
38717;SDS011;24468;52.128;9.278;2023-09-07T07:06:03;7.68;;;4.82;;
38717;SDS011;24468;52.128;9.278;2023-09-07T07:08:29;5.82;;;3.60;;
38717;SDS011;24468;52.128;9.278;2023-09-07T07:10:54;7.47;;;4.45;;
38717;SDS011;24468;52.128;9.278;2023-09-07T07:13:20;7.82;;;4.38;;
38717;SDS011;24468;52.128;9.278;2023-09-07T07:15:45;5.60;;;3.88;;
38717;SDS011;24468;52.128;9.278;2023-09-07T07:18:11;10.15;;;5.10;;
38717;SDS011;24468;52.128;9.278;2023-09-07T07:20:40;4.65;;;3.90;;
38717;SDS011;24468;52.128;9.278;2023-09-07T07:23:07;8.73;;;4.10;;
38717;SDS011;24468;52.128;9.278;2023-09-07T07:25:33;4.88;;;3.97;;
38717;SDS011;24468;52.128;9.278;2023-09-07T07:28:05;6.00;;;4.03;;
38717;SDS011;24468;52.128;9.278;2023-09-07T07:30:35;8.73;;;4.57;;
38717;SDS011;24468;52.128;9.278;2023-09-07T07:33:03;9.68;;;4.43;;
38717;SDS011;24468;52.128;9.278;2023-09-07T07:35:29;5.50;;;4.53;;
38717;SDS011;24468;52.128;9.278;2023-09-07T07:37:56;11.73;;;5.45;;
38717;SDS011;24468;52.128;9.278;2023-09-07T07:40:22;5.15;;;4.22;;
38717;SDS011;24468;52.128;9.278;2023-09-07T07:42:47;4.97;;;3.65;;
38717;SDS011;24468;52.128;9.278;2023-09-07T07:45:14;8.05;;;5.15;;
38717;SDS011;24468;52.128;9.278;2023-09-07T07:47:40;8.25;;;4.22;;
38717;SDS011;24468;52.128;9.278;2023-09-07T07:50:06;9.75;;;5.53;;
38717;SDS011;24468;52.128;9.278;2023-09-07T07:52:32;6.38;;;4.25;;
38717;SDS011;24468;52.128;9.278;2023-09-07T07:54:59;7.20;;;4.72;;
38717;SDS011;24468;52.128;9.278;2023-09-07T07:57:24;5.68;;;3.67;;
38717;SDS011;24468;52.128;9.278;2023-09-07T07:59:50;6.55;;;4.05;;
38717;SDS011;24468;52.128;9.278;2023-09-07T08:02:15;11.90;;;4.28;;
38717;SDS011;24468;52.128;9.278;2023-09-07T08:04:41;6.32;;;4.22;;
38717;SDS011;24468;52.128;9.278;2023-09-07T08:07:06;6.93;;;4.05;;
38717;SDS011;24468;52.128;9.278;2023-09-07T08:09:33;6.28;;;3.97;;
38717;SDS011;24468;52.128;9.278;2023-09-07T08:12:00;6.57;;;3.60;;
38717;SDS011;24468;52.128;9.278;2023-09-07T08:14:29;4.90;;;3.60;;
38717;SDS011;24468;52.128;9.278;2023-09-07T08:16:56;4.55;;;3.58;;
38717;SDS011;24468;52.128;9.278;2023-09-07T08:19:22;5.00;;;3.28;;
38717;SDS011;24468;52.128;9.278;2023-09-07T08:21:47;5.05;;;3.35;;
38717;SDS011;24468;52.128;9.278;2023-09-07T08:24:13;5.30;;;3.90;;
38717;SDS011;24468;52.128;9.278;2023-09-07T08:26:38;4.78;;;3.38;;
38717;SDS011;24468;52.128;9.278;2023-09-07T08:29:04;4.05;;;3.65;;
38717;SDS011;24468;52.128;9.278;2023-09-07T08:31:37;4.50;;;4.07;;
38717;SDS011;24468;52.128;9.278;2023-09-07T08:34:07;4.00;;;3.20;;
38717;SDS011;24468;52.128;9.278;2023-09-07T08:36:34;4.03;;;3.63;;
38717;SDS011;24468;52.128;9.278;2023-09-07T08:39:06;5.13;;;3.67;;
38717;SDS011;24468;52.128;9.278;2023-09-07T08:41:38;6.25;;;3.78;;
38717;SDS011;24468;52.128;9.278;2023-09-07T08:44:09;4.90;;;3.67;;
38717;SDS011;24468;52.128;9.278;2023-09-07T08:46:39;5.30;;;3.60;;
38717;SDS011;24468;52.128;9.278;2023-09-07T08:49:06;5.15;;;3.45;;
38717;SDS011;24468;52.128;9.278;2023-09-07T08:51:32;6.03;;;3.70;;
38717;SDS011;24468;52.128;9.278;2023-09-07T08:53:57;4.97;;;3.45;;
38717;SDS011;24468;52.128;9.278;2023-09-07T08:56:24;4.65;;;3.33;;
38717;SDS011;24468;52.128;9.278;2023-09-07T08:58:50;5.20;;;3.20;;
38717;SDS011;24468;52.128;9.278;2023-09-07T09:01:19;4.68;;;3.25;;
38717;SDS011;24468;52.128;9.278;2023-09-07T09:06:16;4.10;;;3.55;;
38717;SDS011;24468;52.128;9.278;2023-09-07T09:08:50;10.45;;;3.45;;
38717;SDS011;24468;52.128;9.278;2023-09-07T09:11:20;6.22;;;3.67;;
38717;SDS011;24468;52.128;9.278;2023-09-07T09:13:47;4.93;;;3.97;;
38717;SDS011;24468;52.128;9.278;2023-09-07T09:16:14;8.30;;;3.90;;
38717;SDS011;24468;52.128;9.278;2023-09-07T09:18:54;6.35;;;3.75;;
38717;SDS011;24468;52.128;9.278;2023-09-07T09:23:49;4.07;;;3.40;;
38717;SDS011;24468;52.128;9.278;2023-09-07T09:26:18;5.13;;;3.33;;
38717;SDS011;24468;52.128;9.278;2023-09-07T09:28:44;3.85;;;3.45;;
38717;SDS011;24468;52.128;9.278;2023-09-07T09:31:10;7.40;;;3.55;;
38717;SDS011;24468;52.128;9.278;2023-09-07T09:33:37;3.30;;;3.00;;
38717;SDS011;24468;52.128;9.278;2023-09-07T09:36:07;3.70;;;3.40;;
38717;SDS011;24468;52.128;9.278;2023-09-07T09:38:34;7.78;;;3.50;;
38717;SDS011;24468;52.128;9.278;2023-09-07T09:41:00;4.53;;;4.10;;
38717;SDS011;24468;52.128;9.278;2023-09-07T09:43:28;6.90;;;3.70;;
38717;SDS011;24468;52.128;9.278;2023-09-07T09:45:54;4.28;;;3.42;;
38717;SDS011;24468;52.128;9.278;2023-09-07T09:48:20;3.97;;;3.67;;
38717;SDS011;24468;52.128;9.278;2023-09-07T09:50:49;4.25;;;3.67;;
38717;SDS011;24468;52.128;9.278;2023-09-07T09:53:16;5.25;;;3.30;;
38717;SDS011;24468;52.128;9.278;2023-09-07T09:55:45;4.35;;;3.28;;
38717;SDS011;24468;52.128;9.278;2023-09-07T09:58:15;4.80;;;2.92;;
38717;SDS011;24468;52.128;9.278;2023-09-07T10:00:46;4.70;;;3.85;;
38717;SDS011;24468;52.128;9.278;2023-09-07T10:06:09;3.88;;;3.20;;
38717;SDS011;24468;52.128;9.278;2023-09-07T10:08:58;3.22;;;2.85;;
38717;SDS011;24468;52.128;9.278;2023-09-07T10:11:31;16.65;;;3.83;;
38717;SDS011;24468;52.128;9.278;2023-09-07T10:13:59;4.22;;;3.20;;
38717;SDS011;24468;52.128;9.278;2023-09-07T10:16:29;7.68;;;4.00;;
38717;SDS011;24468;52.128;9.278;2023-09-07T10:19:15;6.35;;;3.63;;
38717;SDS011;24468;52.128;9.278;2023-09-07T10:21:42;5.07;;;2.78;;
38717;SDS011;24468;52.128;9.278;2023-09-07T10:24:08;4.07;;;2.97;;
38717;SDS011;24468;52.128;9.278;2023-09-07T10:26:34;5.68;;;3.00;;
38717;SDS011;24468;52.128;9.278;2023-09-07T10:29:00;5.72;;;3.33;;
38717;SDS011;24468;52.128;9.278;2023-09-07T10:31:28;3.97;;;3.08;;
38717;SDS011;24468;52.128;9.278;2023-09-07T10:34:07;4.53;;;2.55;;
38717;SDS011;24468;52.128;9.278;2023-09-07T10:36:37;3.88;;;3.10;;
38717;SDS011;24468;52.128;9.278;2023-09-07T10:39:03;3.53;;;2.72;;
38717;SDS011;24468;52.128;9.278;2023-09-07T10:41:42;4.25;;;2.70;;
38717;SDS011;24468;52.128;9.278;2023-09-07T10:44:08;4.60;;;3.03;;
38717;SDS011;24468;52.128;9.278;2023-09-07T10:46:38;4.57;;;3.30;;
38717;SDS011;24468;52.128;9.278;2023-09-07T10:49:06;3.40;;;3.10;;
38717;SDS011;24468;52.128;9.278;2023-09-07T10:51:40;3.17;;;2.75;;
38717;SDS011;24468;52.128;9.278;2023-09-07T10:54:18;5.07;;;3.50;;
38717;SDS011;24468;52.128;9.278;2023-09-07T10:56:49;6.07;;;3.13;;
38717;SDS011;24468;52.128;9.278;2023-09-07T10:59:16;7.70;;;3.25;;
38717;SDS011;24468;52.128;9.278;2023-09-07T11:01:45;5.05;;;3.08;;
38717;SDS011;24468;52.128;9.278;2023-09-07T11:04:12;6.90;;;3.17;;
38717;SDS011;24468;52.128;9.278;2023-09-07T11:06:38;3.35;;;2.95;;
38717;SDS011;24468;52.128;9.278;2023-09-07T11:09:06;4.03;;;2.90;;
38717;SDS011;24468;52.128;9.278;2023-09-07T11:11:34;3.78;;;3.38;;
38717;SDS011;24468;52.128;9.278;2023-09-07T11:14:01;3.67;;;3.03;;
38717;SDS011;24468;52.128;9.278;2023-09-07T11:16:29;4.10;;;3.10;;
38717;SDS011;24468;52.128;9.278;2023-09-07T11:18:55;3.92;;;3.25;;
38717;SDS011;24468;52.128;9.278;2023-09-07T11:21:21;5.63;;;3.08;;
38717;SDS011;24468;52.128;9.278;2023-09-07T11:23:47;4.05;;;3.15;;
38717;SDS011;24468;52.128;9.278;2023-09-07T11:26:14;3.95;;;3.53;;
38717;SDS011;24468;52.128;9.278;2023-09-07T11:28:42;4.22;;;3.10;;
38717;SDS011;24468;52.128;9.278;2023-09-07T11:31:10;5.60;;;2.72;;
38717;SDS011;24468;52.128;9.278;2023-09-07T11:33:36;4.43;;;3.35;;
38717;SDS011;24468;52.128;9.278;2023-09-07T11:36:02;9.05;;;3.15;;
38717;SDS011;24468;52.128;9.278;2023-09-07T11:38:28;4.72;;;2.92;;
38717;SDS011;24468;52.128;9.278;2023-09-07T11:41:02;5.00;;;3.45;;
38717;SDS011;24468;52.128;9.278;2023-09-07T11:43:28;5.22;;;3.13;;
38717;SDS011;24468;52.128;9.278;2023-09-07T11:45:54;5.03;;;3.30;;
38717;SDS011;24468;52.128;9.278;2023-09-07T11:48:19;4.90;;;3.28;;
38717;SDS011;24468;52.128;9.278;2023-09-07T11:50:45;4.70;;;3.13;;
38717;SDS011;24468;52.128;9.278;2023-09-07T11:53:10;5.72;;;3.17;;
38717;SDS011;24468;52.128;9.278;2023-09-07T11:55:36;6.80;;;3.70;;
38717;SDS011;24468;52.128;9.278;2023-09-07T11:58:03;3.25;;;2.90;;
38717;SDS011;24468;52.128;9.278;2023-09-07T12:00:32;6.20;;;2.83;;
38717;SDS011;24468;52.128;9.278;2023-09-07T12:02:57;3.10;;;2.80;;
38717;SDS011;24468;52.128;9.278;2023-09-07T12:05:23;4.05;;;2.80;;
38717;SDS011;24468;52.128;9.278;2023-09-07T12:07:49;3.95;;;2.97;;
38717;SDS011;24468;52.128;9.278;2023-09-07T12:10:15;3.45;;;2.85;;
38717;SDS011;24468;52.128;9.278;2023-09-07T12:12:40;7.10;;;3.42;;
38717;SDS011;24468;52.128;9.278;2023-09-07T12:15:06;4.35;;;3.28;;
38717;SDS011;24468;52.128;9.278;2023-09-07T12:17:33;4.18;;;3.20;;
38717;SDS011;24468;52.128;9.278;2023-09-07T12:19:59;6.95;;;4.70;;
38717;SDS011;24468;52.128;9.278;2023-09-07T12:22:26;3.92;;;3.25;;
38717;SDS011;24468;52.128;9.278;2023-09-07T12:24:52;6.43;;;4.07;;
38717;SDS011;24468;52.128;9.278;2023-09-07T12:27:18;5.78;;;3.72;;
38717;SDS011;24468;52.128;9.278;2023-09-07T12:29:44;5.22;;;3.88;;
38717;SDS011;24468;52.128;9.278;2023-09-07T12:32:10;3.75;;;3.30;;
38717;SDS011;24468;52.128;9.278;2023-09-07T12:34:36;3.50;;;3.20;;
38717;SDS011;24468;52.128;9.278;2023-09-07T12:37:01;4.93;;;3.45;;
38717;SDS011;24468;52.128;9.278;2023-09-07T12:39:29;7.53;;;3.97;;
38717;SDS011;24468;52.128;9.278;2023-09-07T12:41:55;6.60;;;4.47;;
38717;SDS011;24468;52.128;9.278;2023-09-07T12:44:21;5.53;;;3.70;;
38717;SDS011;24468;52.128;9.278;2023-09-07T12:46:46;6.43;;;3.63;;
38717;SDS011;24468;52.128;9.278;2023-09-07T12:49:12;5.85;;;3.88;;
38717;SDS011;24468;52.128;9.278;2023-09-07T12:51:40;3.95;;;3.25;;
38717;SDS011;24468;52.128;9.278;2023-09-07T12:54:05;4.22;;;3.83;;
38717;SDS011;24468;52.128;9.278;2023-09-07T12:56:31;5.50;;;3.55;;
38717;SDS011;24468;52.128;9.278;2023-09-07T12:58:57;4.55;;;3.55;;
38717;SDS011;24468;52.128;9.278;2023-09-07T13:01:24;5.05;;;3.90;;
38717;SDS011;24468;52.128;9.278;2023-09-07T13:03:50;7.70;;;3.53;;
38717;SDS011;24468;52.128;9.278;2023-09-07T13:06:16;4.32;;;3.67;;
38717;SDS011;24468;52.128;9.278;2023-09-07T13:08:42;4.20;;;3.80;;
38717;SDS011;24468;52.128;9.278;2023-09-07T13:11:09;4.65;;;3.58;;
38717;SDS011;24468;52.128;9.278;2023-09-07T13:13:35;5.82;;;4.25;;
38717;SDS011;24468;52.128;9.278;2023-09-07T13:16:01;5.55;;;4.30;;
38717;SDS011;24468;52.128;9.278;2023-09-07T13:18:27;4.15;;;3.75;;
38717;SDS011;24468;52.128;9.278;2023-09-07T13:20:52;5.72;;;3.75;;
38717;SDS011;24468;52.128;9.278;2023-09-07T13:23:24;4.07;;;3.28;;
38717;SDS011;24468;52.128;9.278;2023-09-07T13:25:59;6.20;;;3.78;;
38717;SDS011;24468;52.128;9.278;2023-09-07T13:28:25;4.45;;;3.72;;
38717;SDS011;24468;52.128;9.278;2023-09-07T13:30:51;4.25;;;3.47;;
38717;SDS011;24468;52.128;9.278;2023-09-07T13:33:17;4.03;;;3.63;;
38717;SDS011;24468;52.128;9.278;2023-09-07T13:35:42;3.97;;;3.33;;
38717;SDS011;24468;52.128;9.278;2023-09-07T13:38:09;3.70;;;3.40;;
38717;SDS011;24468;52.128;9.278;2023-09-07T13:40:35;3.70;;;3.40;;
38717;SDS011;24468;52.128;9.278;2023-09-07T13:43:00;3.47;;;3.17;;
38717;SDS011;24468;52.128;9.278;2023-09-07T13:45:26;6.57;;;3.60;;
38717;SDS011;24468;52.128;9.278;2023-09-07T13:47:53;3.90;;;3.50;;
38717;SDS011;24468;52.128;9.278;2023-09-07T13:50:18;4.55;;;3.30;;
38717;SDS011;24468;52.128;9.278;2023-09-07T13:52:44;6.63;;;3.55;;
38717;SDS011;24468;52.128;9.278;2023-09-07T13:55:10;3.55;;;3.20;;
38717;SDS011;24468;52.128;9.278;2023-09-07T13:57:35;4.90;;;3.08;;
38717;SDS011;24468;52.128;9.278;2023-09-07T14:00:01;8.88;;;3.80;;
38717;SDS011;24468;52.128;9.278;2023-09-07T14:02:27;3.80;;;3.22;;
38717;SDS011;24468;52.128;9.278;2023-09-07T14:04:53;8.25;;;3.42;;
38717;SDS011;24468;52.128;9.278;2023-09-07T14:07:19;10.23;;;3.75;;
38717;SDS011;24468;52.128;9.278;2023-09-07T14:09:44;4.30;;;3.67;;
38717;SDS011;24468;52.128;9.278;2023-09-07T14:12:10;6.95;;;3.88;;
38717;SDS011;24468;52.128;9.278;2023-09-07T14:14:37;5.53;;;3.20;;
38717;SDS011;24468;52.128;9.278;2023-09-07T14:17:03;4.78;;;3.22;;
38717;SDS011;24468;52.128;9.278;2023-09-07T14:19:29;5.50;;;3.50;;
38717;SDS011;24468;52.128;9.278;2023-09-07T14:21:57;5.70;;;3.22;;
38717;SDS011;24468;52.128;9.278;2023-09-07T14:24:23;6.78;;;3.55;;
38717;SDS011;24468;52.128;9.278;2023-09-07T14:26:49;7.80;;;3.78;;
38717;SDS011;24468;52.128;9.278;2023-09-07T14:29:15;7.55;;;3.13;;
38717;SDS011;24468;52.128;9.278;2023-09-07T14:31:41;8.70;;;3.60;;
38717;SDS011;24468;52.128;9.278;2023-09-07T14:34:08;8.00;;;3.28;;
38717;SDS011;24468;52.128;9.278;2023-09-07T14:36:35;6.30;;;3.67;;
38717;SDS011;24468;52.128;9.278;2023-09-07T14:39:01;6.03;;;3.70;;
38717;SDS011;24468;52.128;9.278;2023-09-07T14:41:27;4.47;;;3.50;;
38717;SDS011;24468;52.128;9.278;2023-09-07T14:43:55;4.05;;;3.40;;
38717;SDS011;24468;52.128;9.278;2023-09-07T14:46:20;5.50;;;3.35;;
38717;SDS011;24468;52.128;9.278;2023-09-07T14:48:48;6.65;;;3.30;;
38717;SDS011;24468;52.128;9.278;2023-09-07T14:51:14;5.22;;;3.63;;
38717;SDS011;24468;52.128;9.278;2023-09-07T14:53:40;5.93;;;3.60;;
38717;SDS011;24468;52.128;9.278;2023-09-07T14:56:05;4.57;;;3.75;;
38717;SDS011;24468;52.128;9.278;2023-09-07T14:58:31;3.95;;;3.20;;
38717;SDS011;24468;52.128;9.278;2023-09-07T15:00:56;7.40;;;3.97;;
38717;SDS011;24468;52.128;9.278;2023-09-07T15:03:23;4.80;;;3.33;;
38717;SDS011;24468;52.128;9.278;2023-09-07T15:05:48;4.32;;;3.78;;
38717;SDS011;24468;52.128;9.278;2023-09-07T15:08:14;5.72;;;3.88;;
38717;SDS011;24468;52.128;9.278;2023-09-07T15:10:40;6.07;;;3.38;;
38717;SDS011;24468;52.128;9.278;2023-09-07T15:13:05;6.43;;;3.50;;
38717;SDS011;24468;52.128;9.278;2023-09-07T15:15:32;4.63;;;3.63;;
38717;SDS011;24468;52.128;9.278;2023-09-07T15:18:01;11.85;;;4.13;;
38717;SDS011;24468;52.128;9.278;2023-09-07T15:20:28;3.35;;;2.92;;
38717;SDS011;24468;52.128;9.278;2023-09-07T15:22:54;5.18;;;3.80;;
38717;SDS011;24468;52.128;9.278;2023-09-07T15:25:20;8.40;;;3.50;;
38717;SDS011;24468;52.128;9.278;2023-09-07T15:27:45;4.82;;;3.25;;
38717;SDS011;24468;52.128;9.278;2023-09-07T15:30:12;5.97;;;3.25;;
38717;SDS011;24468;52.128;9.278;2023-09-07T15:32:39;3.75;;;3.40;;
38717;SDS011;24468;52.128;9.278;2023-09-07T15:35:05;6.10;;;3.40;;
38717;SDS011;24468;52.128;9.278;2023-09-07T15:37:33;8.30;;;3.47;;
38717;SDS011;24468;52.128;9.278;2023-09-07T15:39:59;8.75;;;3.50;;
38717;SDS011;24468;52.128;9.278;2023-09-07T15:42:25;8.68;;;3.22;;
38717;SDS011;24468;52.128;9.278;2023-09-07T15:44:51;4.60;;;3.20;;
38717;SDS011;24468;52.128;9.278;2023-09-07T15:47:17;4.50;;;3.17;;
38717;SDS011;24468;52.128;9.278;2023-09-07T15:49:42;5.10;;;3.25;;
38717;SDS011;24468;52.128;9.278;2023-09-07T15:52:10;6.90;;;3.67;;
38717;SDS011;24468;52.128;9.278;2023-09-07T15:54:36;6.20;;;3.17;;
38717;SDS011;24468;52.128;9.278;2023-09-07T15:57:02;9.23;;;4.13;;
38717;SDS011;24468;52.128;9.278;2023-09-07T15:59:29;4.97;;;3.33;;
38717;SDS011;24468;52.128;9.278;2023-09-07T16:01:55;6.28;;;3.88;;
38717;SDS011;24468;52.128;9.278;2023-09-07T16:04:21;3.67;;;3.03;;
38717;SDS011;24468;52.128;9.278;2023-09-07T16:06:48;4.47;;;3.22;;
38717;SDS011;24468;52.128;9.278;2023-09-07T16:09:14;10.18;;;3.63;;
38717;SDS011;24468;52.128;9.278;2023-09-07T16:11:41;8.80;;;3.28;;
38717;SDS011;24468;52.128;9.278;2023-09-07T16:14:11;5.80;;;3.10;;
38717;SDS011;24468;52.128;9.278;2023-09-07T16:16:36;4.63;;;3.33;;